KHIB/HIB METAR and TAF weather

Enter ICAO airport designator
Station Type Date Time Source
KHIB METAR 2020/01/29 12:53 UTC NOAA

KHIB 291253Z AUTO 00000KT 4SM BR OVC008 M08/M10 A3017 RMK AO2 SLP244 T10831100


Station Type Date Time Source
KHIB Decoded METAR 2020/01/29 12:53 UTC NOAA

CHISHOLM-HIBBING AIRPORT, MN, United States (KHIB) 47-23N 92-50W 412M
Jan 29, 2020 - 07:53 AM EST / 2020.01.29 1253 UTC
Wind: Calm:0
Visibility: 4 mile(s):0
Sky conditions: overcast
Weather: mist
Temperature: 17.1 F (-8.3 C)
Dew Point: 14.0 F (-10.0 C)
Relative Humidity: 87%
Pressure (altimeter): 30.17 in. Hg (1021 hPa)
ob: KHIB 291253Z AUTO 00000KT 4SM BR OVC008 M08/M10 A3017 RMK AO2 SLP244 T10831100
cycle: 13

Station Type Date Time Source
KHIB TAF 2020/01/29 12:42 UTC NOAA

TAF KHIB 291139Z 2912/3012 00000KT 4SM -FZDZSN BR OVC008
TEMPO 2912/2916 P6SM NSW SCT008 OVC020
FM291600 15003KT P6SM OVC012
FM300500 17003KT 5SM -FZDZSN BR OVC008

Example: see airport list